Time;durP1;ratioP1;P1;durP2;ratioP2;P2;SDS_P1;SDS_P2;PMS_P1;PMS_P2;Temp;Humidity;BMP_temperature;BMP_pressure;BME280_temperature;BME280_humidity;BME280_pressure;Samples;Min_cycle;Max_cycle;Signal;HPM_P1;HPM_P2
2023/07/23 00:01:04;;;;;;;4.63;3.60;;;;;;;21.78;45.87;99049.59;5048962;28;20200;-71
2023/07/23 00:03:31;;;;;;;4.20;3.33;;;;;;;21.75;46.00;99050.75;5048757;28;20094;-72
2023/07/23 00:05:58;;;;;;;5.10;3.05;;;;;;;21.76;45.93;99059.69;5048888;28;20098;-70
2023/07/23 00:08:26;;;;;;;5.00;3.45;;;;;;;21.73;46.22;99051.94;5065966;28;20044;-71
2023/07/23 00:10:56;;;;;;;4.05;3.25;;;;;;;20.85;46.29;98904.97;5048513;28;20055;-71
2023/07/23 00:13:23;;;;;;;4.85;3.30;;;;;;;21.52;46.07;99032.63;5066427;28;20108;-71
2023/07/23 00:15:50;;;;;;;5.72;4.10;;;;;;;21.66;46.38;99051.75;5065722;28;20052;-72
2023/07/23 00:18:17;;;;;;;4.70;2.92;;;;;;;21.71;46.20;99049.41;5065629;28;20056;-71
2023/07/23 00:20:43;;;;;;;4.70;3.38;;;;;;;21.71;46.22;99048.56;5066348;28;20037;-71
2023/07/23 00:23:10;;;;;;;4.80;2.85;;;;;;;20.94;46.53;98939.00;5048692;28;20061;-71
2023/07/23 00:25:38;;;;;;;4.95;3.13;;;;;;;21.36;47.32;99044.19;5048222;28;20120;-71
2023/07/23 00:28:06;;;;;;;3.65;2.67;;;;;;;21.43;47.60;99048.78;5049020;28;20193;-72
2023/07/23 00:30:33;;;;;;;4.00;2.95;;;;;;;21.17;47.55;99004.84;5065651;28;20079;-73
2023/07/23 00:32:59;;;;;;;4.43;3.30;;;;;;;21.05;47.59;99001.56;5048110;28;20320;-72
2023/07/23 00:35:26;;;;;;;3.70;2.65;;;;;;;20.94;46.92;98963.25;5064529;28;20106;-72
2023/07/23 00:37:53;;;;;;;4.57;3.25;;;;;;;21.37;47.16;99052.13;5065460;28;20047;-72
2023/07/23 00:40:20;;;;;;;3.72;2.90;;;;;;;21.36;47.32;99047.72;5065468;28;20048;-71
2023/07/23 00:42:48;;;;;;;4.20;2.88;;;;;;;21.33;47.07;99049.91;5047988;28;20297;-72
2023/07/23 00:45:14;;;;;;;5.00;3.60;;;;;;;21.12;47.46;99018.78;5047907;28;20040;-72
2023/07/23 00:47:44;;;;;;;5.55;3.25;;;;;;;21.12;47.42;99015.25;5048161;28;20057;-72
2023/07/23 00:50:13;;;;;;;4.70;3.50;;;;;;;21.12;47.31;99024.19;5065699;28;20033;-73
2023/07/23 00:52:41;;;;;;;4.80;3.58;;;;;;;21.26;47.42;99040.75;5065670;28;20083;-72
2023/07/23 00:55:09;;;;;;;4.90;3.90;;;;;;;21.16;48.20;99050.81;5065482;28;20060;-70
2023/07/23 00:57:36;;;;;;;4.28;3.20;;;;;;;21.04;48.26;99052.91;5048344;28;20112;-70
2023/07/23 01:00:07;;;;;;;4.30;3.40;;;;;;;20.87;49.02;99059.16;5065538;28;20087;-69
2023/07/23 01:02:34;;;;;;;5.53;3.60;;;;;;;20.80;48.95;99057.09;5065786;28;20049;-69
2023/07/23 01:05:01;;;;;;;6.35;3.50;;;;;;;20.45;49.13;99004.16;5047995;28;20067;-69
2023/07/23 01:07:30;;;;;;;4.80;3.40;;;;;;;20.41;49.23;99002.78;5065494;28;20068;-69
2023/07/23 01:09:58;;;;;;;5.20;3.38;;;;;;;20.76;49.18;99044.09;5047559;28;20060;-69
2023/07/23 01:12:25;;;;;;;5.15;4.07;;;;;;;19.98;49.08;98914.75;5065085;28;20201;-69
2023/07/23 01:14:52;;;;;;;4.93;3.50;;;;;;;20.61;49.00;98999.91;5065074;28;20102;-70
2023/07/23 01:17:21;;;;;;;4.68;3.50;;;;;;;20.87;48.95;99054.63;5065261;28;20199;-68
2023/07/23 01:19:58;;;;;;;4.13;2.92;;;;;;;20.90;48.54;99045.38;5065223;28;20075;-68
2023/07/23 01:22:26;;;;;;;4.93;3.25;;;;;;;20.93;48.67;99043.22;5064971;28;20053;-68
2023/07/23 01:24:53;;;;;;;4.47;3.20;;;;;;;20.93;48.76;99042.38;5047377;28;20056;-68
2023/07/23 01:27:20;;;;;;;5.15;2.83;;;;;;;20.90;48.80;99048.94;5065290;28;20119;-68
2023/07/23 01:29:47;;;;;;;4.70;3.20;;;;;;;20.93;48.74;99045.06;5047635;28;20323;-68
2023/07/23 01:32:14;;;;;;;5.70;3.08;;;;;;;20.94;48.81;99050.31;5065318;28;20102;-68
2023/07/23 01:34:40;;;;;;;5.85;3.63;;;;;;;20.70;48.83;99026.72;5065227;28;20053;-68
2023/07/23 01:37:08;;;;;;;4.70;3.58;;;;;;;20.63;49.80;99052.59;5064884;28;20045;-68
2023/07/23 01:39:36;;;;;;;6.35;3.65;;;;;;;20.41;50.82;99055.75;5065480;28;20059;-68
2023/07/23 01:42:03;;;;;;;4.57;3.08;;;;;;;20.61;49.96;99059.97;5064975;28;20315;-68
2023/07/23 01:44:30;;;;;;;4.70;3.67;;;;;;;20.55;49.75;99063.28;5064923;28;20059;-69
2023/07/23 01:46:57;;;;;;;5.55;2.97;;;;;;;20.55;50.01;99070.53;5068004;28;20041;-69
2023/07/23 01:49:24;;;;;;;4.85;3.67;;;;;;;20.59;50.02;99069.22;5068744;28;20040;-68
2023/07/23 01:51:50;;;;;;;4.53;3.45;;;;;;;20.50;50.05;99068.28;5051210;28;20091;-68
2023/07/23 01:54:17;;;;;;;7.03;3.72;;;;;;;20.57;49.81;99058.59;5068716;28;20091;-68
2023/07/23 01:56:45;;;;;;;4.25;3.00;;;;;;;20.55;49.85;99065.97;5068554;28;20045;-68
2023/07/23 01:59:12;;;;;;;6.50;3.55;;;;;;;20.66;49.37;99064.91;5069097;28;20123;-68
2023/07/23 02:01:39;;;;;;;4.40;3.28;;;;;;;20.59;49.80;99063.81;5068502;28;20293;-68
2023/07/23 02:04:05;;;;;;;4.07;2.53;;;;;;;20.42;49.47;99033.22;5068665;28;20078;-68
2023/07/23 02:06:32;;;;;;;6.00;4.30;;;;;;;20.60;49.72;99060.97;5068702;28;20053;-68
2023/07/23 02:08:59;;;;;;;4.07;3.03;;;;;;;20.51;49.95;99059.22;5050950;28;20041;-68
2023/07/23 02:11:26;;;;;;;4.60;3.22;;;;;;;20.38;50.34;99069.53;5068918;28;20045;-68
2023/07/23 02:13:54;;;;;;;4.68;3.28;;;;;;;20.23;49.92;99023.47;5068839;28;20053;-68
2023/07/23 02:16:21;;;;;;;5.03;3.10;;;;;;;20.40;50.09;99062.16;5068383;28;20341;-68
2023/07/23 02:18:48;;;;;;;4.68;2.88;;;;;;;20.39;50.09;99064.00;5068457;28;20045;-68
2023/07/23 02:21:15;;;;;;;4.43;3.78;;;;;;;20.37;50.31;99057.06;5068277;28;20053;-68
2023/07/23 02:23:43;;;;;;;4.97;3.25;;;;;;;20.41;50.35;99069.22;5068096;28;20110;-68
2023/07/23 02:26:10;;;;;;;3.63;2.75;;;;;;;20.29;50.19;99059.69;5068627;28;20041;-68
2023/07/23 02:28:40;;;;;;;6.00;3.42;;;;;;;20.28;50.68;99064.22;5067961;28;20049;-68
2023/07/23 02:31:08;;;;;;;3.92;3.25;;;;;;;20.13;51.13;99071.09;5050428;28;20212;-68
2023/07/23 02:33:35;;;;;;;4.53;3.20;;;;;;;20.26;50.35;99066.22;5068137;28;20072;-68
2023/07/23 02:36:02;;;;;;;4.72;3.58;;;;;;;20.08;50.91;99059.94;5050908;28;20087;-67
2023/07/23 02:38:29;;;;;;;5.45;3.20;;;;;;;20.02;51.25;99061.41;5068108;28;20044;-70
2023/07/23 02:40:56;;;;;;;5.47;3.63;;;;;;;20.05;51.01;99063.78;5051446;28;20258;-68
2023/07/23 02:43:23;;;;;;;5.07;3.85;;;;;;;20.11;50.94;99063.19;5067961;28;20098;-68
2023/07/23 02:45:50;;;;;;;4.45;3.17;;;;;;;20.14;51.04;99062.88;5068223;28;20057;-67
2023/07/23 02:48:18;;;;;;;10.40;4.22;;;;;;;20.17;50.85;99065.25;5067665;28;20169;-68
2023/07/23 02:50:45;;;;;;;4.55;3.38;;;;;;;20.21;50.70;99067.63;5050938;28;20045;-68
2023/07/23 02:53:11;;;;;;;5.90;3.58;;;;;;;20.06;50.93;99038.56;5067512;28;20296;-68
2023/07/23 02:55:38;;;;;;;4.72;3.33;;;;;;;20.00;50.71;99039.19;5067849;28;20099;-69
2023/07/23 02:58:05;;;;;;;4.38;3.22;;;;;;;19.97;50.80;99044.03;5049452;28;20251;-68
2023/07/23 03:00:32;;;;;;;4.35;3.05;;;;;;;19.75;50.99;99019.22;5068010;28;20110;-68
2023/07/23 03:02:58;;;;;;;5.15;3.75;;;;;;;20.09;50.82;99067.84;5067756;28;20041;-68
2023/07/23 03:05:27;;;;;;;5.32;3.28;;;;;;;20.09;51.03;99069.69;5067856;28;20121;-68
2023/07/23 03:07:53;;;;;;;6.50;4.05;;;;;;;19.97;51.42;99061.00;5049844;28;20366;-68
2023/07/23 03:10:20;;;;;;;5.50;3.50;;;;;;;19.87;51.74;99068.28;5067157;28;20090;-69
2023/07/23 03:12:47;;;;;;;4.75;3.65;;;;;;;19.92;51.55;99078.59;5050425;28;20052;-68
2023/07/23 03:15:14;;;;;;;4.57;3.28;;;;;;;19.30;51.64;98970.78;5067143;28;20296;-68
2023/07/23 03:17:40;;;;;;;4.68;3.38;;;;;;;19.93;51.40;99073.06;5067270;28;20041;-68
2023/07/23 03:20:10;;;;;;;5.38;3.92;;;;;;;19.86;51.91;99070.13;5050084;28;20045;-68
2023/07/23 03:22:38;;;;;;;5.65;3.17;;;;;;;19.83;51.89;99062.38;5067272;28;20075;-68
2023/07/23 03:25:05;;;;;;;4.82;3.97;;;;;;;19.77;51.86;99070.16;5066821;28;20072;-69
2023/07/23 03:27:32;;;;;;;4.47;3.15;;;;;;;19.85;51.72;99071.13;5049407;28;20045;-68
2023/07/23 03:29:59;;;;;;;5.35;3.55;;;;;;;19.42;52.07;99017.97;5049304;28;20296;-69
2023/07/23 03:32:26;;;;;;;4.93;3.22;;;;;;;19.85;51.71;99067.59;5067321;28;20045;-69
2023/07/23 03:34:52;;;;;;;6.05;3.83;;;;;;;19.81;51.70;99069.72;5049512;28;20056;-68
2023/07/23 03:37:19;;;;;;;8.57;4.30;;;;;;;19.73;52.22;99069.59;5066915;28;20289;-69
2023/07/23 03:39:47;;;;;;;5.15;3.33;;;;;;;19.75;52.08;99064.06;5067199;28;20041;-69
2023/07/23 03:42:14;;;;;;;4.68;3.38;;;;;;;19.71;52.35;99068.91;5066846;28;20052;-69
2023/07/23 03:44:40;;;;;;;4.53;3.60;;;;;;;19.70;52.67;99063.69;5066791;28;20044;-69
2023/07/23 03:47:11;;;;;;;6.15;3.35;;;;;;;19.60;53.15;99063.72;5066522;28;20243;-69
2023/07/23 03:49:38;;;;;;;5.57;3.78;;;;;;;19.42;52.92;99034.09;5066685;28;20052;-69
2023/07/23 03:52:05;;;;;;;4.43;3.38;;;;;;;19.59;53.02;99070.09;5066699;28;20049;-69
2023/07/23 03:54:32;;;;;;;4.82;3.63;;;;;;;19.49;53.29;99066.59;5066391;28;20071;-68
2023/07/23 03:57:00;;;;;;;5.10;3.45;;;;;;;19.55;53.44;99072.22;5066255;28;20059;-68
2023/07/23 03:59:30;;;;;;;5.57;4.05;;;;;;;19.51;53.36;99070.00;5066292;28;20293;-68
2023/07/23 04:01:57;;;;;;;4.68;3.42;;;;;;;19.44;54.10;99079.63;5066456;28;20185;-68
2023/07/23 04:04:24;;;;;;;5.22;3.55;;;;;;;19.37;53.82;99084.72;5066468;28;20112;-68
2023/07/23 04:06:51;;;;;;;5.05;3.83;;;;;;;19.23;53.60;99056.50;5066093;28;20343;-68
2023/07/23 04:09:18;;;;;;;7.57;3.92;;;;;;;19.27;53.90;99054.34;5065162;28;20055;-68
2023/07/23 04:11:45;;;;;;;5.53;3.50;;;;;;;19.31;53.60;99049.53;5066316;28;20102;-68
2023/07/23 04:14:13;;;;;;;5.78;3.47;;;;;;;19.48;53.74;99087.25;5066019;28;20087;-69
2023/07/23 04:16:40;;;;;;;5.30;3.45;;;;;;;19.48;53.81;99084.56;5065945;28;20045;-68
2023/07/23 04:19:07;;;;;;;4.53;3.22;;;;;;;19.33;53.50;99052.91;5048446;28;20041;-67
2023/07/23 04:21:33;;;;;;;4.78;3.63;;;;;;;19.13;53.64;99030.66;5066136;28;20071;-68
2023/07/23 04:24:00;;;;;;;5.93;3.72;;;;;;;19.36;54.18;99093.78;5066017;28;20057;-68
2023/07/23 04:26:30;;;;;;;4.90;3.60;;;;;;;19.49;53.51;99088.94;5066485;28;20044;-69
2023/07/23 04:28:57;;;;;;;7.70;3.75;;;;;;;19.51;53.94;99086.97;5066160;28;20066;-68
2023/07/23 04:31:25;;;;;;;5.95;3.90;;;;;;;19.49;54.12;99098.84;5066076;28;20284;-68
2023/07/23 04:33:52;;;;;;;6.57;4.15;;;;;;;19.50;53.85;99087.97;5065985;28;20103;-69
2023/07/23 04:36:19;;;;;;;5.57;3.85;;;;;;;19.43;53.83;99086.00;5066190;28;20055;-68
2023/07/23 04:38:46;;;;;;;5.65;3.88;;;;;;;19.40;54.21;99094.38;5048217;28;20041;-67
2023/07/23 04:41:13;;;;;;;4.53;2.83;;;;;;;19.17;54.23;99051.69;5066272;28;20052;-68
2023/07/23 04:43:42;;;;;;;6.47;4.13;;;;;;;19.28;54.47;99088.28;5066136;28;20048;-69
2023/07/23 04:46:09;;;;;;;4.88;3.67;;;;;;;19.32;54.28;99086.16;5066193;28;20087;-69
2023/07/23 04:48:38;;;;;;;4.80;3.38;;;;;;;19.07;54.17;99041.97;5065797;28;20057;-69
2023/07/23 04:51:06;;;;;;;4.95;3.53;;;;;;;19.45;54.28;99090.25;5047979;28;20040;-68
2023/07/23 04:53:33;;;;;;;4.85;3.40;;;;;;;19.33;54.34;99093.22;5065402;28;20082;-69
2023/07/23 04:56:02;;;;;;;5.35;3.60;;;;;;;19.22;54.70;99092.41;5048538;28;20060;-68
2023/07/23 04:58:29;;;;;;;4.47;3.35;;;;;;;19.19;54.95;99094.53;5048609;28;20112;-68
2023/07/23 05:00:56;;;;;;;5.18;3.55;;;;;;;19.24;54.60;99094.94;5065327;28;20037;-68
2023/07/23 05:03:22;;;;;;;4.65;3.60;;;;;;;19.23;55.16;99090.56;5047824;28;20312;-68
2023/07/23 05:05:52;;;;;;;5.53;3.50;;;;;;;19.12;55.25;99098.78;5065808;28;20098;-67
2023/07/23 05:08:19;;;;;;;4.47;3.50;;;;;;;19.13;55.40;99100.50;5065324;28;20228;-68
2023/07/23 05:10:47;;;;;;;4.90;3.55;;;;;;;18.90;55.39;99071.28;5066064;28;20057;-68
2023/07/23 05:13:15;;;;;;;7.22;4.32;;;;;;;19.19;55.23;99103.44;5047697;28;20041;-70
2023/07/23 05:15:42;;;;;;;6.10;3.88;;;;;;;19.14;55.40;99107.56;5047717;28;20045;-69
2023/07/23 05:18:08;;;;;;;6.05;3.70;;;;;;;19.29;54.86;99105.25;5065625;28;20045;-68
2023/07/23 05:20:35;;;;;;;6.40;3.85;;;;;;;19.27;54.80;99107.25;5066129;28;20048;-68
2023/07/23 05:23:03;;;;;;;6.57;3.58;;;;;;;19.37;54.49;99100.00;5069018;28;20049;-68
2023/07/23 05:25:30;;;;;;;7.32;5.38;;;;;;;19.22;54.18;99075.44;5069417;28;20064;-68
2023/07/23 05:27:57;;;;;;;5.78;4.07;;;;;;;19.44;53.71;99103.81;5069091;28;20197;-68
2023/07/23 05:30:23;;;;;;;5.55;3.50;;;;;;;19.42;53.80;99103.97;5069380;28;20066;-68
2023/07/23 05:32:50;;;;;;;6.97;3.55;;;;;;;19.47;53.49;99106.22;5069261;28;20079;-68
2023/07/23 05:35:17;;;;;;;8.48;3.42;;;;;;;19.51;53.12;99102.25;5051793;28;20045;-69
2023/07/23 05:37:44;;;;;;;4.70;3.40;;;;;;;19.59;52.47;99101.50;5069234;28;20045;-68
2023/07/23 05:40:12;;;;;;;5.20;3.83;;;;;;;19.59;52.20;99096.97;5068829;28;20097;-68
2023/07/23 05:42:39;;;;;;;5.20;3.55;;;;;;;19.63;52.64;99102.91;5068791;28;20090;-69
2023/07/23 05:45:07;;;;;;;4.88;3.88;;;;;;;19.58;52.05;99099.81;5069083;28;20067;-68
2023/07/23 05:47:33;;;;;;;5.97;3.63;;;;;;;19.66;51.87;99107.97;5051304;28;20037;-68
2023/07/23 05:50:00;;;;;;;4.50;3.53;;;;;;;19.69;51.76;99105.00;5068731;28;20045;-68
2023/07/23 05:52:27;;;;;;;4.60;3.40;;;;;;;19.46;51.58;99059.69;5069283;28;20044;-68
2023/07/23 05:54:53;;;;;;;5.35;3.33;;;;;;;19.71;51.82;99103.84;5068948;28;20052;-68
2023/07/23 05:57:21;;;;;;;5.22;2.97;;;;;;;19.61;51.65;99078.00;5068788;28;20044;-68
2023/07/23 05:59:48;;;;;;;4.15;3.05;;;;;;;19.76;51.43;99104.25;5068777;28;20041;-69
2023/07/23 06:02:15;;;;;;;4.38;3.08;;;;;;;19.79;51.96;99098.59;5069356;28;20064;-68
2023/07/23 06:04:41;;;;;;;3.80;3.00;;;;;;;19.81;51.81;99102.00;5068737;28;20091;-68
2023/07/23 06:07:08;;;;;;;4.65;3.30;;;;;;;19.79;51.35;99100.41;5068517;28;20112;-68
2023/07/23 06:09:35;;;;;;;4.68;3.20;;;;;;;19.44;52.40;99053.63;5068963;28;20114;-68
2023/07/23 06:12:02;;;;;;;4.65;3.50;;;;;;;19.84;52.01;99103.53;5068546;28;20063;-68
2023/07/23 06:14:30;;;;;;;4.43;3.40;;;;;;;19.42;51.75;99042.16;5050763;28;20051;-68
2023/07/23 06:16:57;;;;;;;5.47;3.30;;;;;;;19.83;52.01;99096.47;5050670;28;20049;-68
2023/07/23 06:19:24;;;;;;;4.30;3.55;;;;;;;19.96;51.54;99096.97;5068181;28;20216;-68
2023/07/23 06:21:50;;;;;;;4.57;3.20;;;;;;;20.04;51.59;99093.53;5068355;28;20087;-68
2023/07/23 06:24:17;;;;;;;7.53;3.80;;;;;;;20.13;50.89;99088.09;5068089;28;20057;-69
2023/07/23 06:26:44;;;;;;;4.70;3.20;;;;;;;20.18;51.22;99093.00;5050272;28;20041;-68
2023/07/23 06:29:11;;;;;;;4.20;3.30;;;;;;;20.19;51.31;99089.31;5068253;28;20067;-68
2023/07/23 06:31:39;;;;;;;5.18;3.72;;;;;;;20.26;50.86;99090.44;5067904;28;20123;-68
2023/07/23 06:34:06;;;;;;;5.38;3.60;;;;;;;20.29;50.34;99091.97;5067379;28;20292;-69
2023/07/23 06:36:32;;;;;;;4.70;3.42;;;;;;;20.37;50.86;99092.06;5068032;28;20249;-67
2023/07/23 06:38:59;;;;;;;5.07;3.70;;;;;;;20.39;50.52;99092.75;5067843;28;20059;-66
2023/07/23 06:41:27;;;;;;;4.50;3.60;;;;;;;20.43;50.28;99092.28;5067886;28;20049;-67
2023/07/23 06:43:54;;;;;;;4.50;3.55;;;;;;;20.35;49.84;99067.16;5050242;28;20079;-67
2023/07/23 06:46:21;;;;;;;3.83;2.90;;;;;;;20.59;49.96;99091.59;5067685;28;20049;-67
2023/07/23 06:48:49;;;;;;;4.00;3.08;;;;;;;20.61;50.03;99084.22;5067959;28;20037;-68
2023/07/23 06:51:16;;;;;;;5.10;3.38;;;;;;;20.73;49.80;99084.81;5049935;28;20090;-68
2023/07/23 06:53:44;;;;;;;4.80;3.42;;;;;;;20.78;49.36;99085.19;5068040;28;20106;-68
2023/07/23 06:56:12;;;;;;;4.43;3.25;;;;;;;20.80;48.87;99086.72;5067743;28;20100;-68
2023/07/23 06:58:40;;;;;;;5.05;3.63;;;;;;;20.94;48.28;99100.63;5067578;28;20055;-68
2023/07/23 07:01:09;;;;;;;4.75;3.30;;;;;;;20.89;47.98;99063.41;5050181;28;20147;-68
2023/07/23 07:03:35;;;;;;;4.90;3.90;;;;;;;21.05;47.59;99090.47;5050742;28;20104;-68
2023/07/23 07:06:04;;;;;;;4.57;3.50;;;;;;;21.14;47.60;99086.00;5067642;28;20055;-67
2023/07/23 07:08:31;;;;;;;3.92;2.85;;;;;;;21.25;46.13;99091.13;5068017;28;20108;-67
2023/07/23 07:10:59;;;;;;;4.53;3.50;;;;;;;21.37;45.87;99081.75;5067520;28;20095;-66
2023/07/23 07:13:27;;;;;;;4.30;3.22;;;;;;;21.60;45.76;99081.22;5067668;28;20103;-67
2023/07/23 07:15:53;;;;;;;5.85;3.45;;;;;;;21.81;45.25;99078.97;5049705;28;20051;-67
2023/07/23 07:18:20;;;;;;;6.05;3.42;;;;;;;21.46;43.82;98983.75;5049580;28;20347;-68
2023/07/23 07:20:54;;;;;;;4.05;3.10;;;;;;;22.23;43.01;99068.13;5049868;28;20231;-69
2023/07/23 07:23:22;;;;;;;4.03;3.00;;;;;;;22.39;43.07;99064.63;5066526;28;20083;-66
2023/07/23 07:25:49;;;;;;;4.68;3.20;;;;;;;22.46;42.24;99062.13;5067738;28;20403;-66
2023/07/23 07:28:16;;;;;;;4.63;3.00;;;;;;;22.38;42.67;99052.97;5049999;28;20231;-68
2023/07/23 07:30:42;;;;;;;5.35;3.10;;;;;;;22.69;42.87;99064.03;5049695;28;20067;-68
2023/07/23 07:33:09;;;;;;;4.72;3.63;;;;;;;22.86;42.12;99066.72;5049903;28;20170;-68
2023/07/23 07:35:36;;;;;;;4.82;3.45;;;;;;;22.02;41.94;98927.44;5066955;28;20045;-68
2023/07/23 07:38:03;;;;;;;4.78;3.17;;;;;;;22.92;40.87;99057.94;5049271;28;20178;-69
2023/07/23 07:40:32;;;;;;;4.32;3.30;;;;;;;23.20;41.30;99061.09;5049201;28;20044;-68
2023/07/23 07:42:59;;;;;;;5.75;3.17;;;;;;;23.14;40.99;99056.38;5066476;28;20053;-68
2023/07/23 07:45:25;;;;;;;5.20;3.50;;;;;;;23.34;39.35;99063.97;5066812;28;20051;-68
2023/07/23 07:47:53;;;;;;;4.95;3.60;;;;;;;23.52;39.65;99049.38;5049476;28;20091;-69
2023/07/23 07:50:20;;;;;;;5.25;3.42;;;;;;;23.40;39.50;99059.72;5066757;28;20044;-68
2023/07/23 07:52:47;;;;;;;7.43;3.95;;;;;;;23.58;38.60;99059.50;5066332;28;20076;-68
2023/07/23 07:55:14;;;;;;;4.22;3.45;;;;;;;23.60;38.81;99055.59;5066478;28;20044;-69
2023/07/23 07:57:44;;;;;;;4.88;3.42;;;;;;;23.72;38.58;99058.78;5066157;28;20032;-69
2023/07/23 08:00:12;;;;;;;5.85;3.55;;;;;;;23.75;38.79;99063.00;5048760;28;20044;-67
2023/07/23 08:02:39;;;;;;;4.38;3.65;;;;;;;23.80;37.61;99049.78;5066151;28;20045;-68
2023/07/23 08:05:07;;;;;;;4.78;3.67;;;;;;;23.84;37.51;99033.00;5049221;28;20040;-68
2023/07/23 08:07:35;;;;;;;4.15;3.28;;;;;;;23.97;37.26;99057.66;5065923;28;20098;-68
2023/07/23 08:10:02;;;;;;;4.93;3.85;;;;;;;23.43;37.11;98947.66;5066542;28;20041;-68
2023/07/23 08:12:29;;;;;;;5.13;3.22;;;;;;;23.69;37.50;98950.91;5048797;28;20099;-68
2023/07/23 08:14:59;;;;;;;5.55;3.92;;;;;;;24.44;37.24;99015.22;5066270;28;20052;-69
2023/07/23 08:17:26;;;;;;;5.38;3.45;;;;;;;24.63;37.21;99042.66;5066402;28;20036;-68
2023/07/23 08:19:53;;;;;;;6.78;4.00;;;;;;;24.80;36.58;99032.56;5066180;28;20090;-70
2023/07/23 08:22:20;;;;;;;5.00;3.53;;;;;;;25.25;35.93;99037.03;5065995;28;20071;-68
2023/07/23 08:24:48;;;;;;;5.07;4.03;;;;;;;25.08;36.15;99034.69;5065710;28;20064;-67
2023/07/23 08:27:21;;;;;;;5.38;3.38;;;;;;;24.86;36.58;99026.41;5048334;28;20095;-68
2023/07/23 08:29:48;;;;;;;4.65;3.60;;;;;;;24.43;36.54;98954.78;5066161;28;20053;-68
2023/07/23 08:32:20;;;;;;;5.90;3.75;;;;;;;25.16;36.45;99026.47;5065928;28;20045;-68
2023/07/23 08:34:47;;;;;;;5.53;4.05;;;;;;;25.34;35.01;99034.28;5065887;28;20078;-68
2023/07/23 08:37:14;;;;;;;4.32;3.25;;;;;;;25.51;35.40;99028.47;5066486;28;20120;-68
2023/07/23 08:39:41;;;;;;;5.97;3.53;;;;;;;25.69;34.97;99027.25;5065567;28;20180;-68
2023/07/23 08:42:34;;;;;;;5.18;4.07;;;;;;;25.49;34.99;99024.25;5065575;28;20040;-68
2023/07/23 08:45:34;;;;;;;5.63;3.58;;;;;;;25.90;34.26;99017.28;5016456;28;20060;-67
2023/07/23 08:48:15;;;;;;;5.28;3.10;;;;;;;25.81;32.93;99015.72;5065717;28;20094;-66
2023/07/23 08:50:44;;;;;;;4.18;3.67;;;;;;;26.07;33.55;99011.66;5048187;28;20056;-67
2023/07/23 08:53:12;;;;;;;6.57;3.90;;;;;;;26.09;31.96;99024.00;5065873;28;20087;-67
2023/07/23 08:55:43;;;;;;;3.95;3.05;;;;;;;26.26;32.42;99012.91;5064752;28;20051;-67
2023/07/23 08:58:13;;;;;;;4.88;3.60;;;;;;;26.20;32.36;99014.50;5065037;28;20037;-66
2023/07/23 09:00:42;;;;;;;4.25;3.83;;;;;;;25.82;32.82;99016.56;5065423;28;20086;-67
2023/07/23 09:03:11;;;;;;;5.32;3.22;;;;;;;26.06;32.01;99028.97;5065648;28;20107;-67
2023/07/23 09:05:38;;;;;;;4.65;3.58;;;;;;;26.31;31.45;99018.59;5047769;28;20040;-67
2023/07/23 09:08:06;;;;;;;4.78;3.10;;;;;;;26.57;30.92;99009.84;5065635;28;20041;-68
2023/07/23 09:10:33;;;;;;;4.68;3.75;;;;;;;26.76;31.25;99010.06;5065240;28;20051;-67
2023/07/23 09:12:59;;;;;;;4.50;3.25;;;;;;;26.63;30.91;99003.66;5065077;28;20040;-67
2023/07/23 09:15:26;;;;;;;3.72;3.10;;;;;;;26.57;31.51;98999.81;5065468;28;20178;-67
2023/07/23 09:17:53;;;;;;;5.15;3.50;;;;;;;26.71;30.96;99003.53;5047606;28;20044;-67
2023/07/23 09:20:21;;;;;;;5.45;4.10;;;;;;;26.11;30.17;98905.16;5065395;28;20063;-67
2023/07/23 09:22:48;;;;;;;4.32;3.03;;;;;;;26.57;30.94;98982.66;5047509;28;20200;-68
2023/07/23 09:25:16;;;;;;;5.20;3.60;;;;;;;26.58;30.34;98960.75;5048437;28;20049;-68
2023/07/23 09:27:43;;;;;;;6.50;3.22;;;;;;;26.68;29.95;98991.16;5065310;28;20049;-67
2023/07/23 09:30:18;;;;;;;4.22;3.08;;;;;;;26.66;29.27;99003.28;5065002;28;20301;-68
2023/07/23 09:32:45;;;;;;;4.50;3.40;;;;;;;26.95;29.75;98991.38;5065274;28;20049;-68
2023/07/23 09:35:12;;;;;;;4.10;3.10;;;;;;;26.80;29.87;98986.03;5047831;28;20347;-67
2023/07/23 09:37:42;;;;;;;4.70;3.20;;;;;;;26.79;28.93;98990.63;5047867;28;20040;-68
2023/07/23 09:40:10;;;;;;;7.20;3.38;;;;;;;26.89;29.10;98989.44;5064718;28;20305;-68
2023/07/23 09:42:38;;;;;;;5.03;3.00;;;;;;;26.80;29.63;98967.00;5065176;28;20293;-67
2023/07/23 09:45:06;;;;;;;4.60;3.28;;;;;;;26.77;29.99;98956.53;5065106;28;20045;-68
2023/07/23 09:47:33;;;;;;;4.22;3.10;;;;;;;27.22;28.74;98971.47;5047447;28;20055;-69
2023/07/23 09:50:00;;;;;;;4.57;3.22;;;;;;;27.52;28.91;98963.91;5064778;28;20293;-69
2023/07/23 09:52:34;;;;;;;5.63;3.20;;;;;;;26.71;29.49;98890.19;5065083;28;20048;-67
2023/07/23 09:55:03;;;;;;;5.43;3.60;;;;;;;27.25;28.59;98948.50;5064759;28;20328;-67
2023/07/23 09:57:33;;;;;;;4.95;3.72;;;;;;;27.13;28.91;98964.50;5065125;28;20045;-66
2023/07/23 10:00:01;;;;;;;4.50;3.28;;;;;;;26.92;29.39;98902.88;5064999;28;20108;-67
2023/07/23 10:02:30;;;;;;;4.55;3.50;;;;;;;27.18;28.95;98959.31;5065041;28;20053;-68
2023/07/23 10:04:58;;;;;;;4.85;3.35;;;;;;;27.21;28.67;98947.19;5064977;28;20055;-68
2023/07/23 10:07:26;;;;;;;5.95;3.20;;;;;;;27.24;28.81;98870.63;5066985;28;20044;-68
2023/07/23 10:09:54;;;;;;;4.68;3.67;;;;;;;27.59;29.22;98933.97;5068240;28;20304;-68
2023/07/23 10:12:22;;;;;;;5.03;3.70;;;;;;;27.69;28.47;98902.63;5068494;28;20200;-69
2023/07/23 10:14:49;;;;;;;4.60;3.58;;;;;;;27.70;28.87;98926.09;5051087;28;20040;-68
2023/07/23 10:17:17;;;;;;;4.30;3.50;;;;;;;27.63;29.76;98933.41;5050981;28;20056;-68
2023/07/23 10:19:45;;;;;;;6.38;3.65;;;;;;;27.31;29.45;98910.44;5051621;28;20078;-69
2023/07/23 10:22:12;;;;;;;4.88;3.78;;;;;;;27.75;28.68;98920.03;5068480;28;20090;-68
2023/07/23 10:24:40;;;;;;;4.53;3.53;;;;;;;27.74;28.80;98930.09;5068050;28;20053;-68
2023/07/23 10:27:14;;;;;;;5.55;3.50;;;;;;;27.91;28.93;98910.69;5068030;28;20098;-68
2023/07/23 10:30:19;;;;;;;4.68;3.25;;;;;;;27.98;29.04;98925.16;5067970;28;20053;-68
2023/07/23 10:33:07;;;;;;;5.00;3.10;;;;;;;28.13;28.99;98912.19;5067947;28;20124;-68
2023/07/23 10:35:59;;;;;;;4.30;3.20;;;;;;;28.06;28.42;98916.78;5050208;28;20111;-68
2023/07/23 10:38:27;;;;;;;4.28;3.55;;;;;;;28.04;27.97;98907.97;5067987;28;20087;-68
2023/07/23 10:40:54;;;;;;;4.00;3.35;;;;;;;27.74;28.71;98902.03;5068191;28;20049;-69
2023/07/23 10:43:21;;;;;;;5.38;4.10;;;;;;;28.12;28.44;98903.16;5067586;28;20302;-68
2023/07/23 10:46:00;;;;;;;5.85;3.67;;;;;;;27.76;28.64;98840.03;5067782;28;20064;-68
2023/07/23 10:48:38;;;;;;;4.78;3.78;;;;;;;28.35;28.97;98897.31;5067551;28;20051;-68
2023/07/23 10:51:08;;;;;;;4.90;3.75;;;;;;;28.03;28.00;98893.53;5067750;28;20300;-68
2023/07/23 10:53:39;;;;;;;5.43;3.53;;;;;;;28.06;28.07;98893.09;5050574;28;20045;-68
2023/07/23 10:56:22;;;;;;;4.10;3.20;;;;;;;27.83;28.14;98879.03;5067419;28;20250;-67
2023/07/23 10:58:49;;;;;;;6.33;3.53;;;;;;;28.26;27.52;98882.22;5066882;28;20080;-68
2023/07/23 11:01:21;;;;;;;4.50;3.55;;;;;;;28.19;27.55;98886.84;5049663;28;20048;-68
2023/07/23 11:03:49;;;;;;;4.40;3.63;;;;;;;27.79;27.61;98864.97;5067217;28;20378;-68
2023/07/23 11:06:27;;;;;;;4.20;3.50;;;;;;;27.47;27.83;98816.72;5033368;28;20370;-67
2023/07/23 11:08:56;;;;;;;6.30;3.83;;;;;;;28.05;26.84;98880.53;5049948;28;20040;-68
2023/07/23 11:11:29;;;;;;;6.13;3.50;;;;;;;28.39;27.69;98884.09;5067497;28;20296;-68
2023/07/23 11:13:56;;;;;;;5.25;3.20;;;;;;;28.34;27.41;98871.09;5067618;28;20041;-68
2023/07/23 11:16:25;;;;;;;4.45;3.50;;;;;;;28.09;26.92;98835.50;5067311;28;20108;-68
2023/07/23 11:18:52;;;;;;;5.13;3.80;;;;;;;28.22;26.75;98880.13;5066995;28;20036;-68
2023/07/23 11:21:19;;;;;;;5.22;3.75;;;;;;;28.37;28.10;98843.44;5067036;28;20064;-68
2023/07/23 11:23:46;;;;;;;5.75;3.95;;;;;;;28.48;25.77;98855.63;5067034;28;20342;-68
2023/07/23 11:26:15;;;;;;;5.03;3.40;;;;;;;28.57;28.63;98858.97;5066907;28;20041;-69
2023/07/23 11:28:42;;;;;;;5.90;3.30;;;;;;;28.55;26.93;98867.34;5067456;28;20051;-69
2023/07/23 11:31:08;;;;;;;4.82;4.10;;;;;;;28.24;26.28;98840.72;5049379;28;20204;-69
2023/07/23 11:33:37;;;;;;;5.30;3.85;;;;;;;28.21;27.25;98849.31;5067428;28;20102;-70
2023/07/23 11:36:04;;;;;;;4.70;3.20;;;;;;;28.26;27.40;98844.06;5049859;28;20033;-69
2023/07/23 11:38:32;;;;;;;4.55;3.28;;;;;;;28.57;26.76;98818.06;5066653;28;20051;-69